Time;durP1;ratioP1;P1;durP2;ratioP2;P2;SDS_P1;SDS_P2;PMS_P1;PMS_P2;Temp;Humidity;BMP_temperature;BMP_pressure;BME280_temperature;BME280_humidity;BME280_pressure;Samples;Min_cycle;Max_cycle;Signal;HPM_P1;HPM_P2
2022/07/10 00:00:26;;;;;;;8.73;1.23;;;;;;;13.04;100.00;155800.28;4989374;28;20043;-79
2022/07/10 00:02:52;;;;;;;9.50;1.35;;;;;;;13.03;100.00;155797.75;4966559;28;20042;-78
2022/07/10 00:05:18;;;;;;;5.97;1.10;;;;;;;13.05;100.00;155802.88;5005804;28;20133;-79
2022/07/10 00:07:44;;;;;;;4.88;1.15;;;;;;;13.09;100.00;155811.88;5016375;28;20089;-80
2022/07/10 00:10:10;;;;;;;5.05;0.98;;;;;;;13.09;100.00;155811.88;4991662;28;20026;-79
2022/07/10 00:12:37;;;;;;;10.10;1.33;;;;;;;13.14;100.00;155824.69;4993767;28;20018;-78
2022/07/10 00:15:06;;;;;;;8.38;1.15;;;;;;;13.13;100.00;155822.16;4990527;28;20042;-77
2022/07/10 00:17:32;;;;;;;9.30;1.38;;;;;;;13.16;100.00;155828.56;5009767;28;20517;-78
2022/07/10 00:19:58;;;;;;;6.53;1.13;;;;;;;13.12;100.00;155818.28;4971925;28;20069;-78
2022/07/10 00:22:25;;;;;;;6.43;1.10;;;;;;;13.02;100.00;155793.88;5018954;28;20034;-80
2022/07/10 00:24:50;;;;;;;7.50;1.10;;;;;;;13.07;100.00;155806.69;5007406;28;20124;-82
2022/07/10 00:27:19;;;;;;;8.82;1.40;;;;;;;13.01;100.00;155791.28;4991854;28;20069;-79
2022/07/10 00:29:45;;;;;;;6.93;1.23;;;;;;;13.02;100.00;155793.88;5011506;28;20041;-78
2022/07/10 00:32:11;;;;;;;11.70;1.45;;;;;;;13.07;100.00;155806.69;4993325;28;20975;-79
2022/07/10 00:34:37;;;;;;;7.07;1.05;;;;;;;13.04;100.00;155799.00;5012689;28;20030;-77
2022/07/10 00:37:03;;;;;;;8.80;1.40;;;;;;;13.05;100.00;155802.88;4997158;28;20038;-76
2022/07/10 00:39:29;;;;;;;7.18;1.40;;;;;;;13.06;100.00;155804.16;5002122;28;20125;-77
2022/07/10 00:41:54;;;;;;;8.38;1.38;;;;;;;12.99;100.00;155786.16;5005502;28;20109;-78
2022/07/10 00:44:20;;;;;;;11.40;1.50;;;;;;;12.97;100.00;155781.00;4996824;28;20065;-77
2022/07/10 00:46:46;;;;;;;4.97;1.38;;;;;;;12.88;100.00;155759.16;4990452;28;20065;-78
2022/07/10 00:49:12;;;;;;;9.85;1.63;;;;;;;12.76;100.00;155728.34;4998362;28;20076;-79
2022/07/10 00:51:38;;;;;;;9.35;1.95;;;;;;;12.73;100.00;155721.91;4993193;28;20037;-79
2022/07/10 00:54:05;;;;;;;8.40;1.75;;;;;;;12.61;100.00;155691.09;4993194;28;20054;-81
2022/07/10 00:56:31;;;;;;;5.65;1.55;;;;;;;12.55;100.00;155676.97;4991983;28;20041;-78
2022/07/10 00:58:57;;;;;;;10.88;1.98;;;;;;;12.44;100.00;155648.69;5013336;28;20041;-81
2022/07/10 01:01:23;;;;;;;10.98;1.98;;;;;;;12.43;100.00;155646.09;4993604;28;20037;-77
2022/07/10 01:03:50;;;;;;;7.13;2.20;;;;;;;12.35;100.00;155626.84;4988306;28;20035;-79
2022/07/10 01:06:16;;;;;;;9.40;1.90;;;;;;;12.37;100.00;155630.72;4982029;28;20053;-81
2022/07/10 01:08:42;;;;;;;9.15;2.00;;;;;;;12.36;100.00;155628.16;5009228;28;20131;-80
2022/07/10 01:11:10;;;;;;;6.22;1.52;;;;;;;12.56;100.00;155679.50;5026142;28;20104;-80
2022/07/10 01:13:36;;;;;;;4.93;1.23;;;;;;;12.54;100.00;155674.38;4996578;28;20470;-79
2022/07/10 01:16:03;;;;;;;7.32;1.45;;;;;;;12.64;100.00;155700.09;4996533;28;20041;-79
2022/07/10 01:18:28;;;;;;;10.68;2.15;;;;;;;12.64;100.00;155700.09;5009760;28;20037;-79
2022/07/10 01:20:55;;;;;;;6.22;1.63;;;;;;;12.68;100.00;155707.75;5003152;28;20113;-79
2022/07/10 01:23:22;;;;;;;7.97;1.10;;;;;;;12.59;100.00;155685.97;5027085;28;20045;-81
2022/07/10 01:25:49;;;;;;;11.20;1.30;;;;;;;12.63;100.00;155696.22;5010562;28;20038;-79
2022/07/10 01:28:20;;;;;;;8.13;1.20;;;;;;;12.63;100.00;155697.50;5000085;28;20048;-80
2022/07/10 01:30:47;;;;;;;8.50;1.52;;;;;;;12.61;100.00;155692.34;5018473;28;20033;-79
2022/07/10 01:33:13;;;;;;;8.13;1.35;;;;;;;12.57;100.00;155680.81;5007871;28;20062;-80
2022/07/10 01:35:39;;;;;;;7.00;1.65;;;;;;;12.53;100.00;155670.56;5004164;28;20034;-79
2022/07/10 01:38:05;;;;;;;5.60;1.20;;;;;;;12.45;100.00;155651.25;5004990;28;20034;-81
2022/07/10 01:40:30;;;;;;;6.10;1.17;;;;;;;12.41;100.00;155642.28;5020268;28;20076;-81
2022/07/10 01:42:56;;;;;;;5.50;1.02;;;;;;;12.30;100.00;155614.03;5006679;28;20034;-80
2022/07/10 01:45:22;;;;;;;7.20;1.13;;;;;;;12.25;100.00;155601.19;4994384;28;20037;-80
2022/07/10 01:47:48;;;;;;;4.82;1.42;;;;;;;12.14;100.00;155572.94;4995846;28;20503;-79
2022/07/10 01:50:13;;;;;;;4.75;1.20;;;;;;;12.21;100.00;155590.91;5018351;28;20112;-80
2022/07/10 01:52:39;;;;;;;4.32;1.20;;;;;;;12.11;100.00;155566.53;5027394;28;20088;-80
2022/07/10 01:55:06;;;;;;;8.10;1.52;;;;;;;12.08;100.00;155558.81;4986082;28;20044;-80
2022/07/10 01:57:32;;;;;;;5.57;1.33;;;;;;;12.07;100.00;155557.53;5000787;28;20107;-78
2022/07/10 01:59:58;;;;;;;6.65;1.55;;;;;;;12.10;100.00;155562.66;4989455;28;20573;-78
2022/07/10 02:02:23;;;;;;;6.80;1.20;;;;;;;12.00;100.00;155539.53;5027303;28;20034;-79
2022/07/10 02:04:49;;;;;;;9.20;1.60;;;;;;;11.96;100.00;155527.97;5000779;28;20030;-81
2022/07/10 02:07:18;;;;;;;8.30;1.50;;;;;;;11.87;100.00;155507.38;4982736;28;20092;-78
2022/07/10 02:09:45;;;;;;;3.42;1.25;;;;;;;11.85;100.00;155502.25;5015796;28;20125;-79
2022/07/10 02:12:12;;;;;;;8.23;1.70;;;;;;;11.85;100.00;155502.25;4989160;28;20033;-79
2022/07/10 02:14:39;;;;;;;6.47;1.73;;;;;;;11.90;100.00;155512.56;5019148;28;20034;-79
2022/07/10 02:17:06;;;;;;;5.53;1.40;;;;;;;11.87;100.00;155506.13;4974806;28;20049;-78
2022/07/10 02:19:32;;;;;;;7.20;1.60;;;;;;;11.87;100.00;155507.38;5022508;28;20045;-78
2022/07/10 02:21:59;;;;;;;7.22;2.10;;;;;;;11.94;100.00;155522.81;5026284;28;20069;-81
2022/07/10 02:24:24;;;;;;;11.32;1.80;;;;;;;12.01;100.00;155542.09;5009846;28;20026;-80
2022/07/10 02:26:50;;;;;;;10.43;1.77;;;;;;;12.01;100.00;155542.09;5008158;28;20052;-79
2022/07/10 02:29:17;;;;;;;9.95;2.13;;;;;;;12.10;100.00;155563.94;4994633;28;20034;-79
2022/07/10 02:31:43;;;;;;;6.03;1.27;;;;;;;12.11;100.00;155566.53;5002398;28;20077;-80
2022/07/10 02:34:13;;;;;;;6.15;1.48;;;;;;;12.20;100.00;155588.31;5024394;28;20046;-79
2022/07/10 02:36:39;;;;;;;12.13;1.90;;;;;;;12.20;100.00;155588.31;5010201;28;20083;-78
2022/07/10 02:39:06;;;;;;;11.60;1.80;;;;;;;12.31;100.00;155616.56;4988653;28;20110;-78
2022/07/10 02:41:32;;;;;;;7.85;1.50;;;;;;;12.30;100.00;155612.72;5014412;28;20386;-78
2022/07/10 02:43:58;;;;;;;9.55;1.98;;;;;;;12.27;100.00;155606.31;5019417;28;20045;-78
2022/07/10 02:46:25;;;;;;;9.38;1.83;;;;;;;12.27;100.00;155606.31;5006288;28;20036;-79
2022/07/10 02:48:51;;;;;;;6.15;1.50;;;;;;;12.22;100.00;155594.78;5005056;28;20034;-80
2022/07/10 02:51:16;;;;;;;9.27;1.65;;;;;;;12.21;100.00;155590.91;5014836;28;20038;-78
2022/07/10 02:53:42;;;;;;;9.68;1.67;;;;;;;12.12;100.00;155569.06;5010428;28;20037;-79
2022/07/10 02:56:08;;;;;;;10.25;1.80;;;;;;;12.10;100.00;155562.66;5008873;28;20409;-79
2022/07/10 02:58:34;;;;;;;8.05;2.10;;;;;;;12.10;100.00;155562.66;5022197;28;20608;-79
2022/07/10 03:00:59;;;;;;;5.88;1.52;;;;;;;12.07;100.00;155557.53;4984043;28;20033;-80
2022/07/10 03:03:25;;;;;;;9.30;1.70;;;;;;;12.08;100.00;155558.81;5013581;28;20025;-80
2022/07/10 03:05:51;;;;;;;14.77;2.10;;;;;;;12.17;100.00;155581.91;5004547;28;20034;-79
2022/07/10 03:08:17;;;;;;;9.68;2.03;;;;;;;12.25;100.00;155601.19;4993850;28;20041;-79
2022/07/10 03:10:42;;;;;;;11.32;2.08;;;;;;;12.26;100.00;155603.72;5002425;28;20165;-80
2022/07/10 03:13:08;;;;;;;13.57;2.03;;;;;;;12.28;100.00;155608.84;4994110;28;20109;-79
2022/07/10 03:15:34;;;;;;;12.43;2.08;;;;;;;12.21;100.00;155592.19;4994590;28;20030;-78
2022/07/10 03:18:00;;;;;;;11.38;2.05;;;;;;;12.25;100.00;155601.19;5000214;28;20034;-79
2022/07/10 03:20:25;;;;;;;11.75;2.63;;;;;;;12.25;100.00;155602.44;5000154;28;20124;-80
2022/07/10 03:22:51;;;;;;;9.88;2.10;;;;;;;12.39;100.00;155637.13;4992355;28;20437;-78
2022/07/10 03:25:17;;;;;;;10.73;2.00;;;;;;;12.29;100.00;155611.44;5005522;28;20041;-81
2022/07/10 03:27:43;;;;;;;15.73;2.30;;;;;;;12.38;100.00;155634.56;4997878;28;20110;-79
2022/07/10 03:30:09;;;;;;;13.52;2.03;;;;;;;12.46;100.00;155653.84;5001671;28;20745;-78
2022/07/10 03:32:35;;;;;;;9.07;1.88;;;;;;;12.48;100.00;155657.69;4998769;28;20034;-79
2022/07/10 03:35:01;;;;;;;19.25;2.50;;;;;;;12.47;100.00;155656.44;4984669;28;20045;-80
2022/07/10 03:37:27;;;;;;;9.25;2.00;;;;;;;12.48;100.00;155658.97;4976181;28;20026;-77
2022/07/10 03:39:52;;;;;;;10.38;2.33;;;;;;;12.59;100.00;155687.22;4998575;28;20501;-77
2022/07/10 03:42:18;;;;;;;9.35;2.25;;;;;;;12.58;100.00;155683.38;5007806;28;20394;-80
2022/07/10 03:44:44;;;;;;;14.82;3.45;;;;;;;12.69;100.00;155710.34;5015728;28;20022;-80
2022/07/10 03:47:10;;;;;;;13.63;3.28;;;;;;;12.76;100.00;155728.34;5004324;28;20030;-79
2022/07/10 03:49:36;;;;;;;16.50;2.90;;;;;;;12.75;100.00;155727.06;5006625;28;20057;-79
2022/07/10 03:52:02;;;;;;;15.48;2.92;;;;;;;12.68;100.00;155709.09;5009271;28;20101;-77
2022/07/10 03:54:29;;;;;;;18.33;3.33;;;;;;;12.72;100.00;155719.34;5005883;28;20385;-80
2022/07/10 03:59:40;;;;;;;15.25;3.10;;;;;;;12.69;100.00;155711.63;4994798;28;20065;-78
2022/07/10 04:02:06;;;;;;;18.77;3.10;;;;;;;12.64;100.00;155698.81;5009302;28;20042;-80
2022/07/10 04:04:32;;;;;;;20.80;3.33;;;;;;;12.61;100.00;155692.34;5003690;28;20038;-79
2022/07/10 04:06:58;;;;;;;17.35;3.05;;;;;;;12.66;100.00;155703.94;5008948;28;20044;-80
2022/07/10 04:09:23;;;;;;;17.92;3.10;;;;;;;12.44;100.00;155649.97;4994347;28;20037;-78
2022/07/10 04:11:49;;;;;;;11.55;2.53;;;;;;;12.53;100.00;155671.81;4985991;28;20042;-79
2022/07/10 04:14:15;;;;;;;8.73;2.80;;;;;;;12.66;100.00;155703.94;5020566;28;20554;-78
2022/07/10 04:16:40;;;;;;;15.93;2.90;;;;;;;12.62;100.00;155693.63;4997107;28;20651;-78
2022/07/10 04:19:06;;;;;;;12.38;2.47;;;;;;;12.60;100.00;155688.50;4996783;28;20042;-79
2022/07/10 04:21:31;;;;;;;12.93;2.83;;;;;;;12.62;100.00;155693.63;5011849;28;20136;-78
2022/07/10 04:23:57;;;;;;;15.20;3.28;;;;;;;12.67;100.00;155706.50;5029174;28;20501;-79
2022/07/10 04:26:23;;;;;;;8.07;2.75;;;;;;;12.61;100.00;155691.09;5011167;28;20034;-78
2022/07/10 04:28:48;;;;;;;14.00;2.88;;;;;;;12.64;100.00;155700.09;5003719;28;20038;-78
2022/07/10 04:31:15;;;;;;;18.17;2.47;;;;;;;12.80;100.00;155738.63;5017648;28;20125;-78
2022/07/10 04:33:40;;;;;;;14.20;2.90;;;;;;;12.82;100.00;155745.03;5022446;28;20410;-78
2022/07/10 04:36:06;;;;;;;13.98;2.80;;;;;;;12.83;100.00;155747.63;5023773;28;20042;-79
2022/07/10 04:38:32;;;;;;;15.32;2.70;;;;;;;12.96;100.00;155778.44;5015548;28;20037;-79
2022/07/10 04:40:58;;;;;;;16.15;3.10;;;;;;;13.01;100.00;155792.56;4994956;28;20038;-79
2022/07/10 04:43:24;;;;;;;18.15;2.55;;;;;;;13.15;100.00;155826.00;5025603;28;20026;-78
2022/07/10 04:45:49;;;;;;;16.80;3.03;;;;;;;13.11;100.00;155817.00;5000830;28;20046;-78
2022/07/10 04:48:15;;;;;;;17.17;2.80;;;;;;;13.13;100.00;155820.81;5003008;28;20033;-79
2022/07/10 04:50:41;;;;;;;17.13;2.85;;;;;;;13.03;100.00;155796.41;5008843;28;20042;-79
2022/07/10 04:53:06;;;;;;;13.85;2.88;;;;;;;12.95;100.00;155775.88;4977952;28;20088;-78
2022/07/10 04:55:32;;;;;;;23.42;3.72;;;;;;;13.04;100.00;155799.00;4998652;28;20042;-79
2022/07/10 04:57:58;;;;;;;12.15;2.97;;;;;;;12.99;100.00;155787.41;5008119;28;20029;-80
2022/07/10 05:00:24;;;;;;;21.27;2.80;;;;;;;13.06;100.00;155804.16;5012529;28;20057;-79
2022/07/10 05:02:49;;;;;;;17.42;3.08;;;;;;;13.02;100.00;155795.16;5008372;28;20061;-80
2022/07/10 05:05:15;;;;;;;17.65;3.17;;;;;;;13.11;100.00;155815.69;4980902;28;20026;-79
2022/07/10 05:07:41;;;;;;;20.23;3.28;;;;;;;13.13;100.00;155820.81;5022293;28;20041;-78
2022/07/10 05:10:08;;;;;;;16.80;3.00;;;;;;;13.18;100.00;155834.97;4986122;28;20038;-79
2022/07/10 05:12:33;;;;;;;29.25;3.53;;;;;;;13.28;100.00;155859.41;5006991;28;20125;-79
2022/07/10 05:15:00;;;;;;;20.67;3.00;;;;;;;13.31;100.00;155867.16;5010212;28;20102;-80
2022/07/10 05:17:29;;;;;;;19.02;3.47;;;;;;;13.27;100.00;155856.81;4994764;28;20034;-79
2022/07/10 05:19:56;;;;;;;17.98;2.90;;;;;;;13.25;100.00;155852.97;5001555;28;20060;-79
2022/07/10 05:22:22;;;;;;;24.30;3.45;;;;;;;13.13;100.00;155822.16;5015829;28;20045;-80
2022/07/10 05:24:48;;;;;;;22.45;3.05;;;;;;;13.13;100.00;155820.81;4996224;28;20030;-80
2022/07/10 05:27:16;;;;;;;16.10;2.80;;;;;;;13.01;100.00;155791.28;5024570;28;20481;-80
2022/07/10 05:29:41;;;;;;;21.10;3.28;;;;;;;13.00;100.00;155790.00;5010628;28;20049;-79
2022/07/10 05:32:07;;;;;;;19.35;2.83;;;;;;;12.96;100.00;155778.44;4984860;28;20030;-78
2022/07/10 05:34:33;;;;;;;14.05;3.20;;;;;;;13.03;100.00;155796.41;4984209;28;20034;-80
2022/07/10 05:36:58;;;;;;;16.38;2.80;;;;;;;13.31;100.00;155865.88;5010214;28;20026;-78
2022/07/10 05:39:26;;;;;;;17.20;2.70;;;;;;;13.55;100.00;155926.28;5020670;28;20117;-78
2022/07/10 05:41:52;;;;;;;18.85;3.08;;;;;;;13.60;100.00;155939.16;5005290;28;20038;-79
2022/07/10 05:44:19;;;;;;;24.63;3.00;;;;;;;13.54;100.00;155925.03;4988025;28;20042;-77
2022/07/10 05:46:46;;;;;;;12.10;2.90;;;;;;;13.57;100.00;155932.69;5005244;28;20045;-78
2022/07/10 05:49:11;;;;;;;15.90;3.10;;;;;;;13.57;100.00;155932.69;5025353;28;20405;-77
2022/07/10 05:51:37;;;;;;;21.92;3.35;;;;;;;13.56;100.00;155928.84;5009680;28;20034;-78
2022/07/10 05:54:03;;;;;;;21.35;3.17;;;;;;;13.44;100.00;155900.56;5005456;28;20033;-79
2022/07/10 05:56:29;;;;;;;17.70;2.45;;;;;;;13.49;100.00;155910.88;4992294;28;20034;-78
2022/07/10 05:58:55;;;;;;;14.45;3.13;;;;;;;13.65;100.00;155950.69;4987588;28;20034;-79
2022/07/10 06:01:22;;;;;;;19.42;3.10;;;;;;;13.73;98.67;155972.56;5026025;28;20113;-78
2022/07/10 06:03:47;;;;;;;15.73;3.17;;;;;;;13.91;98.90;156016.25;5006562;28;20030;-77
2022/07/10 06:06:16;;;;;;;21.35;2.88;;;;;;;14.01;99.76;156043.28;5010857;28;20523;-77
2022/07/10 06:08:45;;;;;;;18.48;3.10;;;;;;;14.21;99.13;156092.13;4989185;28;20179;-78
2022/07/10 06:11:12;;;;;;;19.05;3.05;;;;;;;14.38;96.77;156135.84;4972277;28;20033;-78
2022/07/10 06:13:38;;;;;;;18.65;2.83;;;;;;;14.53;91.56;156171.84;5001200;28;20033;-79
2022/07/10 06:16:04;;;;;;;14.98;2.72;;;;;;;14.62;90.96;156195.06;5019057;28;20034;-79
2022/07/10 06:18:33;;;;;;;13.30;2.28;;;;;;;14.63;91.32;156197.59;5009145;28;20053;-79
2022/07/10 06:20:59;;;;;;;11.43;2.30;;;;;;;14.68;89.38;156209.22;5010348;28;20398;-80
2022/07/10 06:23:25;;;;;;;15.65;2.88;;;;;;;14.81;89.48;156241.38;5025744;28;20045;-82
2022/07/10 06:25:50;;;;;;;15.88;2.50;;;;;;;14.80;87.26;156240.06;4988699;28;20034;-80
2022/07/10 06:28:17;;;;;;;20.10;2.78;;;;;;;14.88;85.88;156260.66;4995136;28;20033;-80
2022/07/10 06:30:43;;;;;;;25.52;3.42;;;;;;;14.89;88.00;156261.94;4985353;28;20042;-80
2022/07/10 06:33:09;;;;;;;13.68;2.28;;;;;;;14.89;88.95;156261.94;5021408;28;20029;-79
2022/07/10 06:35:35;;;;;;;21.17;2.47;;;;;;;14.82;88.67;156243.91;5011424;28;20034;-80
2022/07/10 06:38:01;;;;;;;17.40;2.97;;;;;;;14.69;86.80;156213.06;5012094;28;20524;-80
2022/07/10 06:40:28;;;;;;;16.95;3.03;;;;;;;14.86;90.99;156254.19;5005627;28;20043;-81
2022/07/10 06:42:54;;;;;;;19.05;2.80;;;;;;;14.97;91.98;156282.50;5005292;28;20030;-80
2022/07/10 06:45:20;;;;;;;17.00;2.95;;;;;;;15.09;87.11;156313.41;5004397;28;20127;-79
2022/07/10 06:48:01;;;;;;;16.40;2.63;;;;;;;15.28;86.59;156359.72;5000319;28;20025;-81
2022/07/10 06:50:31;;;;;;;15.57;2.80;;;;;;;15.23;87.14;156346.84;5006028;28;20022;-79
2022/07/10 06:52:57;;;;;;;18.50;2.60;;;;;;;15.26;87.54;156354.59;5009201;28;20397;-79
2022/07/10 06:55:24;;;;;;;19.83;3.05;;;;;;;15.44;89.77;156400.88;5008060;28;20034;-77
2022/07/10 06:57:49;;;;;;;16.92;3.03;;;;;;;15.52;83.66;156421.50;4982602;28;20026;-79
2022/07/10 07:00:16;;;;;;;14.52;2.35;;;;;;;15.23;84.12;156348.13;4999362;28;20408;-81
2022/07/10 07:02:41;;;;;;;15.43;2.65;;;;;;;15.56;83.95;156430.50;5027694;28;20029;-79
2022/07/10 07:05:08;;;;;;;16.45;2.55;;;;;;;15.72;82.43;156470.38;5007679;28;20036;-81
2022/07/10 07:07:35;;;;;;;14.38;2.08;;;;;;;15.85;80.47;156503.88;5021040;28;20531;-80
2022/07/10 07:10:01;;;;;;;11.85;2.25;;;;;;;15.91;78.04;156519.31;4973642;28;20025;-78
2022/07/10 07:12:27;;;;;;;15.70;2.20;;;;;;;16.12;83.65;156572.13;4988478;28;20033;-79
2022/07/10 07:14:52;;;;;;;14.80;2.10;;;;;;;16.15;83.46;156578.53;4987170;28;20042;-79
2022/07/10 07:17:24;;;;;;;14.90;2.50;;;;;;;16.39;83.09;156637.75;5016044;28;20049;-78
2022/07/10 07:25:21;;;;;;;12.23;2.22;;;;;;;16.53;79.55;156673.81;5011412;28;20033;-78
2022/07/10 07:27:47;;;;;;;15.10;2.47;;;;;;;16.66;76.46;156706.00;5011571;28;20397;-80
2022/07/10 07:30:15;;;;;;;14.98;2.40;;;;;;;16.85;75.73;156753.69;5024462;28;20116;-80
2022/07/10 07:32:41;;;;;;;18.38;2.67;;;;;;;16.99;78.12;156789.78;4982639;28;20457;-79
2022/07/10 07:35:08;;;;;;;27.15;3.45;;;;;;;17.23;77.16;156849.00;5008925;28;20521;-78
2022/07/10 07:37:38;;;;;;;11.07;2.60;;;;;;;17.07;75.25;156809.09;4998604;28;20036;-80
2022/07/10 07:40:06;;;;;;;23.55;2.80;;;;;;;17.01;76.79;156793.59;4988609;28;20034;-78
2022/07/10 07:42:32;;;;;;;19.20;2.53;;;;;;;17.27;75.96;156859.31;4994382;28;20042;-79
2022/07/10 07:44:58;;;;;;;17.88;2.90;;;;;;;17.45;77.37;156904.41;5025802;28;20038;-76
2022/07/10 07:47:24;;;;;;;13.82;2.40;;;;;;;17.69;76.20;156966.25;5010313;28;20109;-79
2022/07/10 07:49:50;;;;;;;13.85;2.40;;;;;;;17.68;74.97;156963.63;4990814;28;20065;-78
2022/07/10 07:52:15;;;;;;;17.80;2.80;;;;;;;17.73;72.28;156975.28;5006533;28;20052;-80
2022/07/10 07:54:41;;;;;;;13.25;2.58;;;;;;;17.82;72.02;156997.13;4996857;28;20041;-79
2022/07/10 07:57:07;;;;;;;18.95;2.60;;;;;;;17.90;75.36;157019.13;5003038;28;20033;-80
2022/07/10 07:59:32;;;;;;;14.48;2.38;;;;;;;18.00;67.91;157042.31;4982495;28;20065;-77
2022/07/10 08:01:58;;;;;;;13.40;2.00;;;;;;;17.86;65.72;157008.81;5000430;28;20034;-78
2022/07/10 08:04:24;;;;;;;13.82;2.08;;;;;;;17.79;71.46;156989.44;5001354;28;20518;-77
2022/07/10 08:06:52;;;;;;;11.15;1.77;;;;;;;17.73;68.04;156974.00;4991549;28;20536;-79
2022/07/10 08:09:20;;;;;;;11.15;1.80;;;;;;;17.83;68.57;157001.00;5025994;28;20033;-78
2022/07/10 08:11:46;;;;;;;9.15;1.67;;;;;;;17.95;71.15;157029.41;5002436;28;20057;-79
2022/07/10 08:14:14;;;;;;;10.93;1.50;;;;;;;17.66;67.53;156957.22;5008483;28;20556;-79
2022/07/10 08:16:40;;;;;;;16.67;2.05;;;;;;;17.50;71.37;156918.56;5006035;28;20043;-80
2022/07/10 08:19:06;;;;;;;10.88;1.90;;;;;;;17.49;68.04;156914.69;5001774;28;20047;-78
2022/07/10 08:21:32;;;;;;;11.30;2.03;;;;;;;17.94;66.24;157028.13;4997218;28;20037;-78
2022/07/10 08:23:58;;;;;;;12.57;2.05;;;;;;;17.57;67.42;156935.31;4977692;28;20072;-80
2022/07/10 08:26:24;;;;;;;12.15;2.13;;;;;;;17.15;71.48;156829.69;5024627;28;20489;-80
2022/07/10 08:28:50;;;;;;;15.52;2.00;;;;;;;16.86;71.28;156756.28;4992143;28;20512;-82
2022/07/10 08:31:15;;;;;;;19.48;2.17;;;;;;;16.59;74.03;156689.25;4998024;28;20038;-80
2022/07/10 08:33:41;;;;;;;14.55;2.45;;;;;;;16.98;72.38;156787.19;5019975;28;20034;-80
2022/07/10 08:36:07;;;;;;;14.25;2.85;;;;;;;17.51;73.75;156919.84;5005161;28;20045;-79
2022/07/10 08:38:33;;;;;;;11.10;2.05;;;;;;;18.04;68.47;157052.63;5011526;28;20036;-81
2022/07/10 08:41:02;;;;;;;11.80;1.85;;;;;;;18.21;68.41;157095.13;5026089;28;20105;-78
2022/07/10 08:43:28;;;;;;;12.05;1.77;;;;;;;18.30;70.80;157118.34;4999808;28;20555;-80
2022/07/10 08:45:54;;;;;;;16.55;1.95;;;;;;;17.81;64.93;156994.59;5001042;28;20072;-81
2022/07/10 08:48:23;;;;;;;11.65;1.98;;;;;;;17.92;66.66;157023.00;4988300;28;20041;-79
2022/07/10 08:50:54;;;;;;;11.48;1.90;;;;;;;18.35;65.77;157129.97;5005166;28;20534;-79
2022/07/10 08:53:30;;;;;;;18.25;1.88;;;;;;;18.91;66.74;157270.50;5000182;28;20501;-80
2022/07/10 08:55:57;;;;;;;15.13;2.20;;;;;;;18.90;63.69;157269.22;4999791;28;20084;-80
2022/07/10 08:58:23;;;;;;;16.23;2.22;;;;;;;18.88;60.97;157262.78;4999916;28;20485;-80
2022/07/10 09:00:49;;;;;;;11.48;2.28;;;;;;;18.43;63.74;157150.56;4989253;28;20482;-80
2022/07/10 09:03:15;;;;;;;13.23;2.47;;;;;;;18.20;66.09;157092.59;5014941;28;20077;-81
2022/07/10 09:05:41;;;;;;;13.88;2.47;;;;;;;18.02;67.27;157047.47;5001925;28;20033;-79
2022/07/10 09:08:28;;;;;;;18.98;3.22;;;;;;;17.83;67.69;157001.00;4985813;28;20095;-81
2022/07/10 09:11:13;;;;;;;20.35;3.58;;;;;;;17.72;69.51;156972.66;5008269;28;20112;-78
2022/07/10 09:13:53;;;;;;;22.65;3.95;;;;;;;17.14;78.88;156827.13;5012604;28;20046;-80
2022/07/10 09:16:25;;;;;;;15.00;3.00;;;;;;;17.53;72.35;156925.00;5021823;28;20390;-81
2022/07/10 09:18:51;;;;;;;13.10;2.42;;;;;;;17.88;67.19;157012.69;5003860;28;20034;-80
2022/07/10 09:21:16;;;;;;;20.45;3.15;;;;;;;18.19;66.60;157090.00;5010542;28;20044;-80
2022/07/10 09:23:43;;;;;;;12.13;2.00;;;;;;;18.26;64.73;157108.03;5020906;28;20477;-78
2022/07/10 09:26:08;;;;;;;13.48;2.22;;;;;;;18.03;67.63;157051.34;5010100;28;20104;-79
2022/07/10 09:28:34;;;;;;;12.30;1.65;;;;;;;18.48;65.21;157164.75;4979437;28;20144;-77
2022/07/10 09:30:59;;;;;;;11.40;1.90;;;;;;;18.92;60.89;157273.09;5005722;28;20023;-80
2022/07/10 09:33:30;;;;;;;8.13;1.55;;;;;;;18.94;60.21;157279.53;5014506;28;20033;-79
2022/07/10 09:36:05;;;;;;;10.68;1.60;;;;;;;19.18;58.46;157338.88;4991610;28;20148;-80
2022/07/10 09:38:42;;;;;;;6.55;1.70;;;;;;;19.39;58.60;157391.72;4990591;28;20104;-79
2022/07/10 09:41:25;;;;;;;10.85;1.92;;;;;;;19.48;59.68;157414.94;4993768;28;20038;-79
2022/07/10 09:43:59;;;;;;;11.57;2.05;;;;;;;19.91;59.34;157522.03;5002167;28;20045;-79
2022/07/10 09:46:27;;;;;;;8.93;1.67;;;;;;;19.64;62.10;157456.19;5024798;28;20034;-81
2022/07/10 09:49:19;;;;;;;12.23;2.20;;;;;;;19.10;61.60;157318.22;5012541;28;20034;-81
2022/07/10 09:51:46;;;;;;;8.52;1.40;;;;;;;18.26;59.84;157108.03;5017290;28;20574;-78
2022/07/10 09:54:12;;;;;;;8.23;1.60;;;;;;;18.41;59.79;157145.44;4984231;28;20054;-79
2022/07/10 09:56:42;;;;;;;9.02;1.58;;;;;;;18.91;58.25;157270.50;4976687;28;20417;-80
2022/07/10 09:59:30;;;;;;;12.52;1.73;;;;;;;19.71;58.08;157471.69;5006431;28;20091;-78
2022/07/10 10:01:59;;;;;;;8.75;1.48;;;;;;;20.01;56.59;157547.84;5021611;28;20036;-81
2022/07/10 10:04:29;;;;;;;9.32;1.60;;;;;;;20.29;54.35;157618.81;5007603;28;20065;-81
2022/07/10 10:07:00;;;;;;;6.18;1.50;;;;;;;20.31;56.61;157622.69;4991989;28;20116;-81
2022/07/10 10:09:43;;;;;;;10.98;1.90;;;;;;;20.08;54.84;157564.59;5018055;28;20037;-78
2022/07/10 10:12:16;;;;;;;12.88;1.90;;;;;;;19.91;56.96;157523.34;5013107;28;20037;-80
2022/07/10 10:14:43;;;;;;;9.88;1.70;;;;;;;19.24;58.93;157355.59;4993205;28;20167;-77
2022/07/10 10:17:11;;;;;;;8.55;1.88;;;;;;;19.37;58.52;157386.56;4992922;28;20852;-79
2022/07/10 10:22:23;;;;;;;11.05;1.60;;;;;;;19.70;56.49;157470.38;5018697;28;20722;-80
2022/07/10 10:24:49;;;;;;;9.20;1.70;;;;;;;19.53;55.21;157426.53;5010039;28;20061;-80
2022/07/10 10:27:15;;;;;;;15.73;1.83;;;;;;;19.83;56.91;157504.00;4997715;28;20026;-79
2022/07/10 10:29:42;;;;;;;11.35;1.90;;;;;;;20.20;55.42;157595.59;4997602;28;20052;-80
2022/07/10 10:32:09;;;;;;;8.25;1.33;;;;;;;20.72;55.79;157725.94;5000261;28;20544;-77
2022/07/10 10:34:42;;;;;;;8.00;1.67;;;;;;;21.28;57.34;157866.66;5008201;28;20130;-77
2022/07/10 10:37:36;;;;;;;6.72;1.35;;;;;;;21.24;52.18;157857.59;5012997;28;20042;-80
2022/07/10 10:40:03;;;;;;;9.00;1.35;;;;;;;20.60;53.79;157697.53;5014723;28;20037;-78
2022/07/10 10:42:37;;;;;;;8.23;1.67;;;;;;;19.88;53.76;157514.31;5009007;28;20045;-80
2022/07/10 10:45:22;;;;;;;8.38;1.33;;;;;;;20.49;52.74;157669.09;4999676;28;20037;-77
2022/07/10 10:48:02;;;;;;;8.52;1.45;;;;;;;20.55;54.91;157683.31;4988239;28;20393;-82
2022/07/10 10:50:47;;;;;;;4.97;1.20;;;;;;;20.40;56.37;157645.94;5010479;28;20064;-80
2022/07/10 10:53:22;;;;;;;7.10;1.50;;;;;;;19.73;54.17;157476.91;5017199;28;20525;-80
2022/07/10 10:56:03;;;;;;;9.93;1.40;;;;;;;19.61;57.39;157448.47;4990820;28;20379;-81
2022/07/10 10:58:45;;;;;;;4.82;1.15;;;;;;;20.06;57.00;157559.44;4994836;28;20030;-78
2022/07/10 11:01:20;;;;;;;6.73;1.50;;;;;;;20.63;57.03;157702.75;5006760;28;20038;-80
2022/07/10 11:04:14;;;;;;;7.50;1.35;;;;;;;20.12;54.64;157574.97;5007540;28;20046;-78
2022/07/10 11:06:44;;;;;;;8.55;1.88;;;;;;;20.25;52.35;157607.19;5016838;28;20054;-79
2022/07/10 11:09:31;;;;;;;8.88;1.20;;;;;;;20.31;54.59;157622.69;4990182;28;20030;-78
2022/07/10 11:12:07;;;;;;;8.25;1.33;;;;;;;20.65;53.83;157709.19;4986334;28;20038;-80
2022/07/10 11:14:37;;;;;;;9.52;1.50;;;;;;;19.98;57.65;157540.09;5003118;28;20100;-81
2022/07/10 11:17:05;;;;;;;5.68;1.17;;;;;;;20.54;59.39;157682.03;5009474;28;20557;-80
2022/07/10 11:19:32;;;;;;;6.90;1.00;;;;;;;20.18;51.40;157591.72;4993324;28;20564;-81
2022/07/10 11:22:20;;;;;;;10.40;1.20;;;;;;;20.03;55.60;157553.00;4991026;28;20046;-81
2022/07/10 11:25:01;;;;;;;7.90;1.30;;;;;;;20.54;52.75;157680.75;4994928;28;20091;-80
2022/07/10 11:27:55;;;;;;;4.38;1.10;;;;;;;21.15;53.33;157834.38;5003577;28;20037;-80
2022/07/10 11:30:21;;;;;;;5.45;1.27;;;;;;;20.54;52.16;157682.03;4986095;28;20034;-79